sensor_id;sensor_type;location;lat;lon;timestamp;temperature;humidity
2867;DHT22;1441;48.886;8.728;2022-07-29T00:02:24;20.30;90.50
2867;DHT22;1441;48.886;8.728;2022-07-29T00:04:50;20.30;90.60
2867;DHT22;1441;48.886;8.728;2022-07-29T00:07:16;20.30;90.70
2867;DHT22;1441;48.886;8.728;2022-07-29T00:09:41;20.30;90.50
2867;DHT22;1441;48.886;8.728;2022-07-29T00:12:07;20.30;90.60
2867;DHT22;1441;48.886;8.728;2022-07-29T00:14:32;20.30;90.30
2867;DHT22;1441;48.886;8.728;2022-07-29T00:16:58;20.30;90.20
2867;DHT22;1441;48.886;8.728;2022-07-29T00:19:23;20.20;90.40
2867;DHT22;1441;48.886;8.728;2022-07-29T00:21:49;20.20;90.40
2867;DHT22;1441;48.886;8.728;2022-07-29T00:24:15;20.30;90.10
2867;DHT22;1441;48.886;8.728;2022-07-29T00:26:40;20.30;90.20
2867;DHT22;1441;48.886;8.728;2022-07-29T00:29:06;20.30;90.40
2867;DHT22;1441;48.886;8.728;2022-07-29T00:31:31;20.30;90.50
2867;DHT22;1441;48.886;8.728;2022-07-29T00:33:57;20.20;91.00
2867;DHT22;1441;48.886;8.728;2022-07-29T00:36:22;20.30;90.70
2867;DHT22;1441;48.886;8.728;2022-07-29T00:38:49;20.30;90.70
2867;DHT22;1441;48.886;8.728;2022-07-29T00:41:16;20.40;90.50
2867;DHT22;1441;48.886;8.728;2022-07-29T00:43:42;20.30;90.60
2867;DHT22;1441;48.886;8.728;2022-07-29T00:46:08;20.30;90.60
2867;DHT22;1441;48.886;8.728;2022-07-29T00:48:34;20.40;90.60
2867;DHT22;1441;48.886;8.728;2022-07-29T00:51:02;20.30;90.90
2867;DHT22;1441;48.886;8.728;2022-07-29T00:53:28;20.40;90.60
2867;DHT22;1441;48.886;8.728;2022-07-29T00:55:55;20.40;90.60
2867;DHT22;1441;48.886;8.728;2022-07-29T00:58:21;20.30;90.60
2867;DHT22;1441;48.886;8.728;2022-07-29T01:00:47;20.30;90.80
2867;DHT22;1441;48.886;8.728;2022-07-29T01:03:13;20.30;91.00
2867;DHT22;1441;48.886;8.728;2022-07-29T01:05:41;20.30;91.20
2867;DHT22;1441;48.886;8.728;2022-07-29T01:08:08;20.30;91.00
2867;DHT22;1441;48.886;8.728;2022-07-29T01:10:37;20.20;91.30
2867;DHT22;1441;48.886;8.728;2022-07-29T01:13:03;20.20;91.70
2867;DHT22;1441;48.886;8.728;2022-07-29T01:15:30;20.20;91.50
2867;DHT22;1441;48.886;8.728;2022-07-29T01:18:11;20.20;91.10
2867;DHT22;1441;48.886;8.728;2022-07-29T01:21:04;20.30;90.90
2867;DHT22;1441;48.886;8.728;2022-07-29T01:24:09;20.30;90.70
2867;DHT22;1441;48.886;8.728;2022-07-29T01:26:49;20.30;90.80
2867;DHT22;1441;48.886;8.728;2022-07-29T01:29:52;20.20;91.10
2867;DHT22;1441;48.886;8.728;2022-07-29T01:32:21;20.30;90.90
2867;DHT22;1441;48.886;8.728;2022-07-29T01:35:06;20.20;90.90
2867;DHT22;1441;48.886;8.728;2022-07-29T01:40:42;20.20;90.90
2867;DHT22;1441;48.886;8.728;2022-07-29T01:43:15;20.20;90.80
2867;DHT22;1441;48.886;8.728;2022-07-29T01:46:00;20.20;90.80
2867;DHT22;1441;48.886;8.728;2022-07-29T01:48:34;20.20;90.80
2867;DHT22;1441;48.886;8.728;2022-07-29T01:51:06;20.10;91.10
2867;DHT22;1441;48.886;8.728;2022-07-29T01:53:37;20.00;91.40
2867;DHT22;1441;48.886;8.728;2022-07-29T01:56:04;20.00;91.70
2867;DHT22;1441;48.886;8.728;2022-07-29T01:58:32;20.10;91.40
2867;DHT22;1441;48.886;8.728;2022-07-29T02:00:59;20.00;91.40
2867;DHT22;1441;48.886;8.728;2022-07-29T02:03:27;20.00;91.00
2867;DHT22;1441;48.886;8.728;2022-07-29T02:05:53;20.00;91.50
2867;DHT22;1441;48.886;8.728;2022-07-29T02:08:21;20.20;90.80
2867;DHT22;1441;48.886;8.728;2022-07-29T02:10:48;20.10;91.40
2867;DHT22;1441;48.886;8.728;2022-07-29T02:13:16;20.00;91.70
2867;DHT22;1441;48.886;8.728;2022-07-29T02:15:42;19.90;91.40
2867;DHT22;1441;48.886;8.728;2022-07-29T02:18:16;19.90;91.60
2867;DHT22;1441;48.886;8.728;2022-07-29T02:20:47;19.90;92.10
2867;DHT22;1441;48.886;8.728;2022-07-29T02:23:17;19.90;92.30
2867;DHT22;1441;48.886;8.728;2022-07-29T02:25:43;19.90;92.30
2867;DHT22;1441;48.886;8.728;2022-07-29T02:28:10;19.90;92.30
2867;DHT22;1441;48.886;8.728;2022-07-29T02:30:40;20.00;92.20
2867;DHT22;1441;48.886;8.728;2022-07-29T02:33:06;20.10;91.90
2867;DHT22;1441;48.886;8.728;2022-07-29T02:35:34;20.10;92.20
2867;DHT22;1441;48.886;8.728;2022-07-29T02:37:59;20.10;92.20
2867;DHT22;1441;48.886;8.728;2022-07-29T02:40:45;20.20;91.80
2867;DHT22;1441;48.886;8.728;2022-07-29T02:43:12;20.20;91.80
2867;DHT22;1441;48.886;8.728;2022-07-29T02:45:38;20.20;91.80
2867;DHT22;1441;48.886;8.728;2022-07-29T02:48:13;20.10;91.80
2867;DHT22;1441;48.886;8.728;2022-07-29T02:50:53;20.10;91.80
2867;DHT22;1441;48.886;8.728;2022-07-29T02:53:24;19.80;92.80
2867;DHT22;1441;48.886;8.728;2022-07-29T02:55:57;19.70;94.10
2867;DHT22;1441;48.886;8.728;2022-07-29T02:58:36;19.60;93.80
2867;DHT22;1441;48.886;8.728;2022-07-29T03:01:08;19.60;93.30
2867;DHT22;1441;48.886;8.728;2022-07-29T03:03:36;19.70;92.90
2867;DHT22;1441;48.886;8.728;2022-07-29T03:06:03;19.70;93.10
2867;DHT22;1441;48.886;8.728;2022-07-29T03:08:30;19.60;93.30
2867;DHT22;1441;48.886;8.728;2022-07-29T03:10:57;19.70;93.10
2867;DHT22;1441;48.886;8.728;2022-07-29T03:13:24;19.60;93.00
2867;DHT22;1441;48.886;8.728;2022-07-29T03:15:51;19.60;92.80
2867;DHT22;1441;48.886;8.728;2022-07-29T03:18:17;19.70;92.60
2867;DHT22;1441;48.886;8.728;2022-07-29T03:20:43;19.70;92.20
2867;DHT22;1441;48.886;8.728;2022-07-29T03:23:09;19.80;91.30
2867;DHT22;1441;48.886;8.728;2022-07-29T03:25:35;19.80;90.70
2867;DHT22;1441;48.886;8.728;2022-07-29T03:28:00;19.80;90.90
2867;DHT22;1441;48.886;8.728;2022-07-29T03:30:26;19.70;91.70
2867;DHT22;1441;48.886;8.728;2022-07-29T03:32:52;19.50;91.90
2867;DHT22;1441;48.886;8.728;2022-07-29T03:35:19;19.50;92.40
2867;DHT22;1441;48.886;8.728;2022-07-29T03:37:45;19.40;92.40
2867;DHT22;1441;48.886;8.728;2022-07-29T03:40:32;19.40;92.20
2867;DHT22;1441;48.886;8.728;2022-07-29T03:43:00;19.30;92.60
2867;DHT22;1441;48.886;8.728;2022-07-29T03:45:28;19.30;93.20
2867;DHT22;1441;48.886;8.728;2022-07-29T03:48:00;19.30;93.00
2867;DHT22;1441;48.886;8.728;2022-07-29T03:50:28;19.40;92.30
2867;DHT22;1441;48.886;8.728;2022-07-29T03:52:55;19.40;92.30
2867;DHT22;1441;48.886;8.728;2022-07-29T03:55:21;19.50;92.30
2867;DHT22;1441;48.886;8.728;2022-07-29T03:57:48;19.50;92.40
2867;DHT22;1441;48.886;8.728;2022-07-29T04:00:15;19.40;93.10
2867;DHT22;1441;48.886;8.728;2022-07-29T04:02:41;19.20;93.40
2867;DHT22;1441;48.886;8.728;2022-07-29T04:05:14;19.20;93.50
2867;DHT22;1441;48.886;8.728;2022-07-29T04:07:42;19.10;93.80
2867;DHT22;1441;48.886;8.728;2022-07-29T04:10:08;19.10;94.30
2867;DHT22;1441;48.886;8.728;2022-07-29T04:12:34;19.10;94.70
2867;DHT22;1441;48.886;8.728;2022-07-29T04:15:01;19.20;94.20
2867;DHT22;1441;48.886;8.728;2022-07-29T04:17:26;19.20;94.00
2867;DHT22;1441;48.886;8.728;2022-07-29T04:19:52;19.10;94.40
2867;DHT22;1441;48.886;8.728;2022-07-29T04:22:17;19.10;95.00
2867;DHT22;1441;48.886;8.728;2022-07-29T04:24:43;19.00;94.80
2867;DHT22;1441;48.886;8.728;2022-07-29T04:27:08;19.00;94.50
2867;DHT22;1441;48.886;8.728;2022-07-29T04:29:34;19.10;94.40
2867;DHT22;1441;48.886;8.728;2022-07-29T04:32:00;19.10;94.50
2867;DHT22;1441;48.886;8.728;2022-07-29T04:34:25;19.10;94.80
2867;DHT22;1441;48.886;8.728;2022-07-29T04:36:51;19.00;94.70
2867;DHT22;1441;48.886;8.728;2022-07-29T04:39:16;19.00;95.40
2867;DHT22;1441;48.886;8.728;2022-07-29T04:41:43;19.00;95.00
2867;DHT22;1441;48.886;8.728;2022-07-29T04:44:09;19.00;95.20
2867;DHT22;1441;48.886;8.728;2022-07-29T04:46:35;19.00;94.60
2867;DHT22;1441;48.886;8.728;2022-07-29T04:49:01;19.10;94.30
2867;DHT22;1441;48.886;8.728;2022-07-29T04:51:26;19.30;94.10
2867;DHT22;1441;48.886;8.728;2022-07-29T04:53:52;19.50;93.30
2867;DHT22;1441;48.886;8.728;2022-07-29T04:56:18;19.60;92.80
2867;DHT22;1441;48.886;8.728;2022-07-29T04:58:43;19.50;93.20
2867;DHT22;1441;48.886;8.728;2022-07-29T05:01:09;19.50;94.20
2867;DHT22;1441;48.886;8.728;2022-07-29T05:03:34;19.50;94.60
2867;DHT22;1441;48.886;8.728;2022-07-29T05:06:00;19.40;94.70
2867;DHT22;1441;48.886;8.728;2022-07-29T05:08:26;19.40;95.00
2867;DHT22;1441;48.886;8.728;2022-07-29T05:10:51;19.40;94.90
2867;DHT22;1441;48.886;8.728;2022-07-29T05:13:17;19.50;95.00
2867;DHT22;1441;48.886;8.728;2022-07-29T05:15:42;19.50;94.30
2867;DHT22;1441;48.886;8.728;2022-07-29T05:18:08;19.60;94.40
2867;DHT22;1441;48.886;8.728;2022-07-29T05:20:33;19.60;94.00
2867;DHT22;1441;48.886;8.728;2022-07-29T05:23:00;19.70;94.10
2867;DHT22;1441;48.886;8.728;2022-07-29T05:25:27;19.80;93.90
2867;DHT22;1441;48.886;8.728;2022-07-29T05:27:54;19.80;93.30
2867;DHT22;1441;48.886;8.728;2022-07-29T05:30:20;19.90;93.70
2867;DHT22;1441;48.886;8.728;2022-07-29T05:32:45;19.90;93.90
2867;DHT22;1441;48.886;8.728;2022-07-29T05:35:11;20.00;93.70
2867;DHT22;1441;48.886;8.728;2022-07-29T05:37:37;20.00;94.00
2867;DHT22;1441;48.886;8.728;2022-07-29T05:40:03;20.20;93.00
2867;DHT22;1441;48.886;8.728;2022-07-29T05:42:29;20.50;92.30
2867;DHT22;1441;48.886;8.728;2022-07-29T05:44:55;20.90;90.00
2867;DHT22;1441;48.886;8.728;2022-07-29T05:47:21;21.60;88.20
2867;DHT22;1441;48.886;8.728;2022-07-29T05:49:47;22.30;84.90
2867;DHT22;1441;48.886;8.728;2022-07-29T05:52:13;22.50;84.50
2867;DHT22;1441;48.886;8.728;2022-07-29T05:54:39;23.00;82.90
2867;DHT22;1441;48.886;8.728;2022-07-29T05:57:04;23.60;80.40
2867;DHT22;1441;48.886;8.728;2022-07-29T05:59:38;24.30;78.50
2867;DHT22;1441;48.886;8.728;2022-07-29T06:02:04;24.40;77.60
2867;DHT22;1441;48.886;8.728;2022-07-29T06:04:31;24.70;76.80
2867;DHT22;1441;48.886;8.728;2022-07-29T06:06:56;24.30;77.90
2867;DHT22;1441;48.886;8.728;2022-07-29T06:09:22;24.10;78.20
2867;DHT22;1441;48.886;8.728;2022-07-29T06:11:48;24.00;78.90
2867;DHT22;1441;48.886;8.728;2022-07-29T06:14:14;23.50;80.60
2867;DHT22;1441;48.886;8.728;2022-07-29T06:16:39;23.10;82.10
2867;DHT22;1441;48.886;8.728;2022-07-29T06:19:05;22.70;83.30
2867;DHT22;1441;48.886;8.728;2022-07-29T06:21:31;22.50;84.50
2867;DHT22;1441;48.886;8.728;2022-07-29T06:23:56;22.50;85.10
2867;DHT22;1441;48.886;8.728;2022-07-29T06:26:22;22.50;85.40
2867;DHT22;1441;48.886;8.728;2022-07-29T06:28:48;22.50;83.50
2867;DHT22;1441;48.886;8.728;2022-07-29T06:31:14;22.70;83.00
2867;DHT22;1441;48.886;8.728;2022-07-29T06:33:39;23.70;80.40
2867;DHT22;1441;48.886;8.728;2022-07-29T06:36:05;24.90;76.20
2867;DHT22;1441;48.886;8.728;2022-07-29T06:38:32;25.50;74.60
2867;DHT22;1441;48.886;8.728;2022-07-29T06:40:58;25.40;73.70
2867;DHT22;1441;48.886;8.728;2022-07-29T06:43:36;25.50;73.80
2867;DHT22;1441;48.886;8.728;2022-07-29T06:46:14;25.50;73.50
2867;DHT22;1441;48.886;8.728;2022-07-29T06:48:41;25.00;75.00
2867;DHT22;1441;48.886;8.728;2022-07-29T06:51:10;24.50;76.50
2867;DHT22;1441;48.886;8.728;2022-07-29T06:53:37;24.40;77.40
2867;DHT22;1441;48.886;8.728;2022-07-29T06:56:05;24.70;77.20
2867;DHT22;1441;48.886;8.728;2022-07-29T06:58:31;25.70;73.20
2867;DHT22;1441;48.886;8.728;2022-07-29T07:01:02;25.40;74.50
2867;DHT22;1441;48.886;8.728;2022-07-29T07:03:28;25.50;73.70
2867;DHT22;1441;48.886;8.728;2022-07-29T07:05:54;25.50;73.50
2867;DHT22;1441;48.886;8.728;2022-07-29T07:08:20;26.20;73.10
2867;DHT22;1441;48.886;8.728;2022-07-29T07:10:47;27.60;68.70
2867;DHT22;1441;48.886;8.728;2022-07-29T07:13:13;28.90;65.70
2867;DHT22;1441;48.886;8.728;2022-07-29T07:15:39;30.00;64.20
2867;DHT22;1441;48.886;8.728;2022-07-29T07:18:06;31.60;60.30
2867;DHT22;1441;48.886;8.728;2022-07-29T07:20:32;31.20;60.50
2867;DHT22;1441;48.886;8.728;2022-07-29T07:22:58;30.20;61.40
2867;DHT22;1441;48.886;8.728;2022-07-29T07:25:24;29.80;62.70
2867;DHT22;1441;48.886;8.728;2022-07-29T07:27:49;29.60;63.00
2867;DHT22;1441;48.886;8.728;2022-07-29T07:30:15;29.30;63.20
2867;DHT22;1441;48.886;8.728;2022-07-29T07:32:41;27.80;65.90
2867;DHT22;1441;48.886;8.728;2022-07-29T07:35:08;26.80;69.10
2867;DHT22;1441;48.886;8.728;2022-07-29T07:37:34;26.40;70.90
2867;DHT22;1441;48.886;8.728;2022-07-29T07:40:00;26.30;71.50
2867;DHT22;1441;48.886;8.728;2022-07-29T07:42:26;27.30;69.30
2867;DHT22;1441;48.886;8.728;2022-07-29T07:44:51;29.00;65.30
2867;DHT22;1441;48.886;8.728;2022-07-29T07:47:17;29.70;62.70
2867;DHT22;1441;48.886;8.728;2022-07-29T07:49:46;29.90;63.10
2867;DHT22;1441;48.886;8.728;2022-07-29T07:52:13;29.70;62.40
2867;DHT22;1441;48.886;8.728;2022-07-29T07:54:38;29.00;63.80
2867;DHT22;1441;48.886;8.728;2022-07-29T07:57:04;29.20;63.30
2867;DHT22;1441;48.886;8.728;2022-07-29T07:59:29;30.30;60.90
2867;DHT22;1441;48.886;8.728;2022-07-29T08:01:55;30.30;61.50
2867;DHT22;1441;48.886;8.728;2022-07-29T08:04:21;29.30;62.70
2867;DHT22;1441;48.886;8.728;2022-07-29T08:06:46;27.70;64.90
2867;DHT22;1441;48.886;8.728;2022-07-29T08:09:12;26.80;68.10
2867;DHT22;1441;48.886;8.728;2022-07-29T08:11:37;26.80;68.50
2867;DHT22;1441;48.886;8.728;2022-07-29T08:14:03;27.10;68.40
2867;DHT22;1441;48.886;8.728;2022-07-29T08:16:29;27.00;68.40
2867;DHT22;1441;48.886;8.728;2022-07-29T08:18:54;27.00;67.70
2867;DHT22;1441;48.886;8.728;2022-07-29T08:21:23;27.60;66.60
2867;DHT22;1441;48.886;8.728;2022-07-29T08:23:49;27.50;63.60
2867;DHT22;1441;48.886;8.728;2022-07-29T08:26:18;27.80;63.00
2867;DHT22;1441;48.886;8.728;2022-07-29T08:28:45;28.80;62.00
2867;DHT22;1441;48.886;8.728;2022-07-29T08:31:12;28.80;61.60
2867;DHT22;1441;48.886;8.728;2022-07-29T08:33:38;28.50;60.00
2867;DHT22;1441;48.886;8.728;2022-07-29T08:36:05;28.50;61.20
2867;DHT22;1441;48.886;8.728;2022-07-29T08:38:32;28.20;60.40
2867;DHT22;1441;48.886;8.728;2022-07-29T08:40:58;28.00;61.30
2867;DHT22;1441;48.886;8.728;2022-07-29T08:43:25;27.80;60.90
2867;DHT22;1441;48.886;8.728;2022-07-29T08:45:51;28.10;60.10
2867;DHT22;1441;48.886;8.728;2022-07-29T08:48:19;28.10;60.80
2867;DHT22;1441;48.886;8.728;2022-07-29T08:50:47;28.00;61.10
2867;DHT22;1441;48.886;8.728;2022-07-29T08:53:17;28.10;61.30
2867;DHT22;1441;48.886;8.728;2022-07-29T08:55:45;28.10;60.60
2867;DHT22;1441;48.886;8.728;2022-07-29T08:58:13;28.40;59.10
2867;DHT22;1441;48.886;8.728;2022-07-29T09:00:43;28.50;58.70
2867;DHT22;1441;48.886;8.728;2022-07-29T09:03:12;28.60;57.70
2867;DHT22;1441;48.886;8.728;2022-07-29T09:05:42;28.60;58.40
2867;DHT22;1441;48.886;8.728;2022-07-29T09:08:08;28.50;59.00
2867;DHT22;1441;48.886;8.728;2022-07-29T09:10:35;28.40;58.60
2867;DHT22;1441;48.886;8.728;2022-07-29T09:13:00;28.60;58.30
2867;DHT22;1441;48.886;8.728;2022-07-29T09:15:26;28.30;59.60
2867;DHT22;1441;48.886;8.728;2022-07-29T09:17:52;28.20;59.20
2867;DHT22;1441;48.886;8.728;2022-07-29T09:20:21;28.60;57.70
2867;DHT22;1441;48.886;8.728;2022-07-29T09:22:48;28.80;57.80
2867;DHT22;1441;48.886;8.728;2022-07-29T09:25:32;28.70;58.80
2867;DHT22;1441;48.886;8.728;2022-07-29T09:28:06;28.70;58.60
2867;DHT22;1441;48.886;8.728;2022-07-29T09:30:32;28.70;58.90
2867;DHT22;1441;48.886;8.728;2022-07-29T09:32:59;29.00;56.90
2867;DHT22;1441;48.886;8.728;2022-07-29T09:35:29;29.20;56.50
2867;DHT22;1441;48.886;8.728;2022-07-29T09:37:55;29.20;56.10
2867;DHT22;1441;48.886;8.728;2022-07-29T09:40:25;29.10;57.40
2867;DHT22;1441;48.886;8.728;2022-07-29T09:42:51;28.80;57.40
2867;DHT22;1441;48.886;8.728;2022-07-29T09:45:33;29.00;57.80
2867;DHT22;1441;48.886;8.728;2022-07-29T09:48:00;29.20;56.60
2867;DHT22;1441;48.886;8.728;2022-07-29T09:50:42;29.20;56.60
2867;DHT22;1441;48.886;8.728;2022-07-29T09:53:09;29.10;56.40
2867;DHT22;1441;48.886;8.728;2022-07-29T09:55:51;29.40;55.70
2867;DHT22;1441;48.886;8.728;2022-07-29T09:58:17;29.60;55.40
2867;DHT22;1441;48.886;8.728;2022-07-29T10:00:44;29.80;54.80
2867;DHT22;1441;48.886;8.728;2022-07-29T10:03:10;30.30;53.50
2867;DHT22;1441;48.886;8.728;2022-07-29T10:05:37;30.50;54.90
2867;DHT22;1441;48.886;8.728;2022-07-29T10:08:02;30.20;53.90
2867;DHT22;1441;48.886;8.728;2022-07-29T10:10:33;30.70;52.20
2867;DHT22;1441;48.886;8.728;2022-07-29T10:13:01;31.20;51.40
2867;DHT22;1441;48.886;8.728;2022-07-29T10:15:29;31.80;50.70
2867;DHT22;1441;48.886;8.728;2022-07-29T10:17:57;32.20;49.10
2867;DHT22;1441;48.886;8.728;2022-07-29T10:20:23;31.80;49.70
2867;DHT22;1441;48.886;8.728;2022-07-29T10:22:50;31.10;52.00
2867;DHT22;1441;48.886;8.728;2022-07-29T10:25:17;30.50;53.40
2867;DHT22;1441;48.886;8.728;2022-07-29T10:27:44;30.70;52.40
2867;DHT22;1441;48.886;8.728;2022-07-29T10:30:11;30.60;52.90
2867;DHT22;1441;48.886;8.728;2022-07-29T10:35:31;30.40;53.00
2867;DHT22;1441;48.886;8.728;2022-07-29T10:38:27;30.30;53.20
2867;DHT22;1441;48.886;8.728;2022-07-29T10:44:00;29.60;54.90
2867;DHT22;1441;48.886;8.728;2022-07-29T10:46:27;29.30;55.70
2867;DHT22;1441;48.886;8.728;2022-07-29T10:49:15;29.20;56.40
2867;DHT22;1441;48.886;8.728;2022-07-29T10:54:19;29.90;55.40
2867;DHT22;1441;48.886;8.728;2022-07-29T10:57:21;30.00;55.20
2867;DHT22;1441;48.886;8.728;2022-07-29T10:59:48;30.50;52.50
2867;DHT22;1441;48.886;8.728;2022-07-29T11:04:59;30.70;53.10
2867;DHT22;1441;48.886;8.728;2022-07-29T11:07:28;30.50;52.90
2867;DHT22;1441;48.886;8.728;2022-07-29T11:15:07;30.30;53.40
2867;DHT22;1441;48.886;8.728;2022-07-29T11:20:40;30.40;53.40
2867;DHT22;1441;48.886;8.728;2022-07-29T11:23:28;30.30;53.60
2867;DHT22;1441;48.886;8.728;2022-07-29T11:29:03;30.30;53.20
2867;DHT22;1441;48.886;8.728;2022-07-29T11:31:32;30.00;54.10
2867;DHT22;1441;48.886;8.728;2022-07-29T11:39:36;29.40;54.50
2867;DHT22;1441;48.886;8.728;2022-07-29T11:45:08;29.60;54.40
2867;DHT22;1441;48.886;8.728;2022-07-29T11:47:57;29.50;55.60
2867;DHT22;1441;48.886;8.728;2022-07-29T11:52:57;29.40;55.20
2867;DHT22;1441;48.886;8.728;2022-07-29T11:55:23;29.40;55.70
2867;DHT22;1441;48.886;8.728;2022-07-29T11:57:50;29.10;55.50
2867;DHT22;1441;48.886;8.728;2022-07-29T12:00:29;29.30;54.70
2867;DHT22;1441;48.886;8.728;2022-07-29T12:02:57;29.30;55.30
2867;DHT22;1441;48.886;8.728;2022-07-29T12:05:35;29.10;55.80
2867;DHT22;1441;48.886;8.728;2022-07-29T12:08:16;29.10;55.00
2867;DHT22;1441;48.886;8.728;2022-07-29T12:10:44;28.90;55.60
2867;DHT22;1441;48.886;8.728;2022-07-29T12:13:12;28.70;55.70
2867;DHT22;1441;48.886;8.728;2022-07-29T12:15:38;28.70;56.80
2867;DHT22;1441;48.886;8.728;2022-07-29T12:18:14;28.70;55.20
2867;DHT22;1441;48.886;8.728;2022-07-29T12:20:40;28.40;56.40
2867;DHT22;1441;48.886;8.728;2022-07-29T12:23:08;28.20;57.50
2867;DHT22;1441;48.886;8.728;2022-07-29T12:25:34;28.10;56.80
2867;DHT22;1441;48.886;8.728;2022-07-29T12:28:05;28.10;56.60
2867;DHT22;1441;48.886;8.728;2022-07-29T12:30:50;28.20;56.50
2867;DHT22;1441;48.886;8.728;2022-07-29T12:33:27;28.20;58.10
2867;DHT22;1441;48.886;8.728;2022-07-29T12:35:56;28.10;58.10
2867;DHT22;1441;48.886;8.728;2022-07-29T12:38:22;28.10;57.10
2867;DHT22;1441;48.886;8.728;2022-07-29T12:40:48;28.20;57.50
2867;DHT22;1441;48.886;8.728;2022-07-29T12:43:18;28.20;56.70
2867;DHT22;1441;48.886;8.728;2022-07-29T12:45:47;28.20;55.70
2867;DHT22;1441;48.886;8.728;2022-07-29T12:48:14;28.10;56.10
2867;DHT22;1441;48.886;8.728;2022-07-29T12:53:19;27.90;56.70
2867;DHT22;1441;48.886;8.728;2022-07-29T12:55:46;27.80;56.90
2867;DHT22;1441;48.886;8.728;2022-07-29T13:01:04;27.80;56.30
2867;DHT22;1441;48.886;8.728;2022-07-29T13:03:51;27.70;56.90
2867;DHT22;1441;48.886;8.728;2022-07-29T13:06:39;27.90;56.10
2867;DHT22;1441;48.886;8.728;2022-07-29T13:09:14;27.90;55.60
2867;DHT22;1441;48.886;8.728;2022-07-29T13:11:45;28.00;56.50
2867;DHT22;1441;48.886;8.728;2022-07-29T13:14:13;27.70;57.20
2867;DHT22;1441;48.886;8.728;2022-07-29T13:19:49;27.60;57.90
2867;DHT22;1441;48.886;8.728;2022-07-29T13:22:22;27.50;57.90
2867;DHT22;1441;48.886;8.728;2022-07-29T13:24:52;27.50;57.20
2867;DHT22;1441;48.886;8.728;2022-07-29T13:27:20;27.70;55.90
2867;DHT22;1441;48.886;8.728;2022-07-29T13:29:46;27.80;56.60
2867;DHT22;1441;48.886;8.728;2022-07-29T13:32:12;27.50;56.70
2867;DHT22;1441;48.886;8.728;2022-07-29T13:34:38;27.50;56.30
2867;DHT22;1441;48.886;8.728;2022-07-29T13:37:04;27.70;56.00
2867;DHT22;1441;48.886;8.728;2022-07-29T13:39:30;27.50;56.30
2867;DHT22;1441;48.886;8.728;2022-07-29T13:41:56;27.60;56.10
2867;DHT22;1441;48.886;8.728;2022-07-29T13:44:21;27.90;55.20
2867;DHT22;1441;48.886;8.728;2022-07-29T13:46:47;27.90;55.70
2867;DHT22;1441;48.886;8.728;2022-07-29T13:49:13;28.00;54.30
2867;DHT22;1441;48.886;8.728;2022-07-29T13:51:38;28.20;55.10
2867;DHT22;1441;48.886;8.728;2022-07-29T13:54:04;28.20;54.60
2867;DHT22;1441;48.886;8.728;2022-07-29T13:56:30;28.10;54.90
2867;DHT22;1441;48.886;8.728;2022-07-29T13:58:56;28.00;55.20
2867;DHT22;1441;48.886;8.728;2022-07-29T14:01:22;27.80;53.80
2867;DHT22;1441;48.886;8.728;2022-07-29T14:03:48;27.70;54.60
2867;DHT22;1441;48.886;8.728;2022-07-29T14:06:14;27.90;54.80
2867;DHT22;1441;48.886;8.728;2022-07-29T14:08:39;28.00;54.00
2867;DHT22;1441;48.886;8.728;2022-07-29T14:11:05;28.10;52.40
2867;DHT22;1441;48.886;8.728;2022-07-29T14:13:31;28.30;51.70
2867;DHT22;1441;48.886;8.728;2022-07-29T14:15:57;28.20;51.30
2867;DHT22;1441;48.886;8.728;2022-07-29T14:18:22;28.10;53.10
2867;DHT22;1441;48.886;8.728;2022-07-29T14:20:48;27.80;53.50
2867;DHT22;1441;48.886;8.728;2022-07-29T14:23:14;28.00;52.20
2867;DHT22;1441;48.886;8.728;2022-07-29T14:25:39;28.10;52.10
2867;DHT22;1441;48.886;8.728;2022-07-29T14:28:05;28.10;52.60
2867;DHT22;1441;48.886;8.728;2022-07-29T14:30:30;28.20;51.70
2867;DHT22;1441;48.886;8.728;2022-07-29T14:32:56;28.20;51.90
2867;DHT22;1441;48.886;8.728;2022-07-29T14:35:21;28.20;52.60
2867;DHT22;1441;48.886;8.728;2022-07-29T14:37:47;28.30;51.80
2867;DHT22;1441;48.886;8.728;2022-07-29T14:40:13;28.40;51.60
2867;DHT22;1441;48.886;8.728;2022-07-29T14:42:39;28.50;51.40
2867;DHT22;1441;48.886;8.728;2022-07-29T14:45:06;28.50;51.50
2867;DHT22;1441;48.886;8.728;2022-07-29T14:47:32;28.20;53.40
2867;DHT22;1441;48.886;8.728;2022-07-29T14:49:57;28.00;52.90
2867;DHT22;1441;48.886;8.728;2022-07-29T14:52:23;27.90;53.70
2867;DHT22;1441;48.886;8.728;2022-07-29T14:54:48;27.80;54.20
2867;DHT22;1441;48.886;8.728;2022-07-29T14:57:14;27.90;53.20
2867;DHT22;1441;48.886;8.728;2022-07-29T14:59:40;28.30;51.90
2867;DHT22;1441;48.886;8.728;2022-07-29T15:02:05;28.30;52.40
2867;DHT22;1441;48.886;8.728;2022-07-29T15:04:31;27.70;53.20
2867;DHT22;1441;48.886;8.728;2022-07-29T15:06:56;27.50;55.10
2867;DHT22;1441;48.886;8.728;2022-07-29T15:09:23;27.40;53.90
2867;DHT22;1441;48.886;8.728;2022-07-29T15:11:48;27.60;54.20
2867;DHT22;1441;48.886;8.728;2022-07-29T15:14:14;27.70;54.00
2867;DHT22;1441;48.886;8.728;2022-07-29T15:16:40;27.50;54.30
2867;DHT22;1441;48.886;8.728;2022-07-29T15:19:07;27.60;54.10
2867;DHT22;1441;48.886;8.728;2022-07-29T15:21:33;27.60;54.00
2867;DHT22;1441;48.886;8.728;2022-07-29T15:23:59;27.50;53.40
2867;DHT22;1441;48.886;8.728;2022-07-29T15:26:25;27.70;53.80
2867;DHT22;1441;48.886;8.728;2022-07-29T15:28:50;27.60;53.30
2867;DHT22;1441;48.886;8.728;2022-07-29T15:31:16;27.80;53.30
2867;DHT22;1441;48.886;8.728;2022-07-29T15:33:44;27.70;53.20
2867;DHT22;1441;48.886;8.728;2022-07-29T15:36:10;27.70;53.80
2867;DHT22;1441;48.886;8.728;2022-07-29T15:38:37;27.90;52.10
2867;DHT22;1441;48.886;8.728;2022-07-29T15:41:04;27.90;51.50
2867;DHT22;1441;48.886;8.728;2022-07-29T15:43:30;28.10;51.10
2867;DHT22;1441;48.886;8.728;2022-07-29T15:45:55;28.10;52.30
2867;DHT22;1441;48.886;8.728;2022-07-29T15:48:40;27.90;53.20
2867;DHT22;1441;48.886;8.728;2022-07-29T15:51:05;27.70;53.00
2867;DHT22;1441;48.886;8.728;2022-07-29T15:53:31;27.80;51.70
2867;DHT22;1441;48.886;8.728;2022-07-29T15:55:56;27.80;52.60
2867;DHT22;1441;48.886;8.728;2022-07-29T15:58:22;27.90;51.70
2867;DHT22;1441;48.886;8.728;2022-07-29T16:00:48;27.90;51.90
2867;DHT22;1441;48.886;8.728;2022-07-29T16:03:13;27.80;51.80
2867;DHT22;1441;48.886;8.728;2022-07-29T16:05:39;27.60;52.70
2867;DHT22;1441;48.886;8.728;2022-07-29T16:08:05;27.70;52.10
2867;DHT22;1441;48.886;8.728;2022-07-29T16:10:30;27.80;52.20
2867;DHT22;1441;48.886;8.728;2022-07-29T16:12:56;27.90;51.70
2867;DHT22;1441;48.886;8.728;2022-07-29T16:15:22;27.90;52.90
2867;DHT22;1441;48.886;8.728;2022-07-29T16:17:47;27.60;52.80
2867;DHT22;1441;48.886;8.728;2022-07-29T16:20:15;27.40;53.60
2867;DHT22;1441;48.886;8.728;2022-07-29T16:22:40;27.20;53.20
2867;DHT22;1441;48.886;8.728;2022-07-29T16:25:06;27.20;52.70
2867;DHT22;1441;48.886;8.728;2022-07-29T16:27:33;27.20;52.90
2867;DHT22;1441;48.886;8.728;2022-07-29T16:29:59;27.20;53.20
2867;DHT22;1441;48.886;8.728;2022-07-29T16:32:24;27.20;53.70
2867;DHT22;1441;48.886;8.728;2022-07-29T16:34:50;27.10;53.80
2867;DHT22;1441;48.886;8.728;2022-07-29T16:37:16;27.00;54.10
2867;DHT22;1441;48.886;8.728;2022-07-29T16:39:42;27.00;54.30
2867;DHT22;1441;48.886;8.728;2022-07-29T16:42:08;27.10;54.50
2867;DHT22;1441;48.886;8.728;2022-07-29T16:44:33;27.20;54.30
2867;DHT22;1441;48.886;8.728;2022-07-29T16:46:59;27.30;54.10
2867;DHT22;1441;48.886;8.728;2022-07-29T16:49:25;27.20;52.50
2867;DHT22;1441;48.886;8.728;2022-07-29T16:51:51;27.20;53.10
2867;DHT22;1441;48.886;8.728;2022-07-29T16:54:18;27.20;53.10